Time;durP1;ratioP1;P1;durP2;ratioP2;P2;SDS_P1;SDS_P2;PMS_P1;PMS_P2;Temp;Humidity;BMP_temperature;BMP_pressure;BME280_temperature;BME280_humidity;BME280_pressure;Samples;Min_cycle;Max_cycle;Signal;HPM_P1;HPM_P2
2023/10/31 00:00:03;;;;;;;0.30;0.30;;;;;;;11.01;94.22;94070.28;6098217;23;20206;-80
2023/10/31 00:02:29;;;;;;;0.50;0.40;;;;;;;11.10;93.78;94072.75;6097930;23;20167;-79
2023/10/31 00:04:57;;;;;;;0.60;0.40;;;;;;;11.20;93.62;94078.44;6133796;23;20179;-80
2023/10/31 00:07:23;;;;;;;2.07;0.60;;;;;;;11.07;93.77;94073.94;6111118;23;20166;-80
2023/10/31 00:09:48;;;;;;;0.73;0.40;;;;;;;11.11;93.29;94082.16;6124744;23;20171;-81
2023/10/31 00:12:13;;;;;;;0.40;0.40;;;;;;;10.89;93.36;94076.16;6148573;23;20180;-79
2023/10/31 00:14:39;;;;;;;1.80;0.43;;;;;;;10.88;92.58;94082.34;6107022;23;20160;-80
2023/10/31 00:17:04;;;;;;;1.60;0.40;;;;;;;10.82;91.91;94078.69;6104986;23;20239;-80
2023/10/31 00:19:30;;;;;;;0.77;0.47;;;;;;;10.85;91.99;94082.69;6130687;23;20183;-81
2023/10/31 00:21:55;;;;;;;1.97;0.60;;;;;;;10.89;91.41;94091.75;6079677;23;20152;-80
2023/10/31 00:24:20;;;;;;;1.53;0.50;;;;;;;10.86;92.28;94092.91;6125133;23;20180;-80
2023/10/31 00:26:46;;;;;;;0.80;0.50;;;;;;;10.68;91.54;94095.09;6100347;23;20192;-79
2023/10/31 00:29:11;;;;;;;2.93;0.87;;;;;;;10.49;90.73;94107.69;6124576;23;20180;-81
2023/10/31 00:31:40;;;;;;;2.93;0.80;;;;;;;10.77;89.66;94101.78;6100386;23;20175;-81
2023/10/31 00:34:06;;;;;;;0.80;0.50;;;;;;;10.53;89.25;94097.75;6128928;23;20160;-81
2023/10/31 00:36:31;;;;;;;1.70;0.80;;;;;;;10.60;88.90;94097.81;6103722;23;20501;-80
2023/10/31 00:38:56;;;;;;;3.73;0.70;;;;;;;10.72;88.44;94099.78;6128266;23;20204;-80
2023/10/31 00:41:22;;;;;;;1.17;0.53;;;;;;;10.62;88.76;94106.25;6102781;23;20156;-80
2023/10/31 00:43:47;;;;;;;2.00;0.60;;;;;;;10.41;88.90;94110.38;6128433;23;20492;-80
2023/10/31 00:46:12;;;;;;;0.97;0.60;;;;;;;10.43;89.05;94108.44;6127835;23;20166;-80
2023/10/31 00:48:38;;;;;;;2.70;0.90;;;;;;;10.50;88.96;94116.28;6127610;23;20253;-81
2023/10/31 00:51:04;;;;;;;2.53;0.73;;;;;;;10.54;87.58;94112.34;6126248;23;20175;-80
2023/10/31 00:53:29;;;;;;;1.40;0.80;;;;;;;10.45;88.20;94113.44;6124137;23;20147;-80
2023/10/31 00:55:54;;;;;;;1.77;0.57;;;;;;;10.42;87.64;94125.00;6122667;23;20198;-81
2023/10/31 00:58:19;;;;;;;1.47;0.60;;;;;;;10.45;87.28;94124.63;6099113;23;20176;-79
2023/10/31 01:00:45;;;;;;;1.10;0.70;;;;;;;10.40;87.33;94123.53;6100169;23;20167;-80
2023/10/31 01:03:10;;;;;;;0.87;0.60;;;;;;;10.34;87.17;94127.69;6099921;23;20503;-81
2023/10/31 01:05:35;;;;;;;1.40;0.60;;;;;;;10.36;86.19;94133.50;6098617;23;20660;-79
2023/10/31 01:08:01;;;;;;;1.70;0.50;;;;;;;10.44;86.03;94132.59;6098472;23;20212;-81
2023/10/31 01:10:26;;;;;;;0.77;0.50;;;;;;;10.31;85.48;94137.59;6122503;23;20251;-80
2023/10/31 01:12:51;;;;;;;0.90;0.60;;;;;;;10.26;85.45;94138.16;6123139;23;20180;-80
2023/10/31 01:15:17;;;;;;;0.70;0.67;;;;;;;10.26;85.44;94142.53;6123917;23;20169;-80
2023/10/31 01:17:42;;;;;;;1.73;0.60;;;;;;;10.27;85.75;94142.34;6074629;23;20160;-80
2023/10/31 01:20:09;;;;;;;1.90;0.50;;;;;;;10.21;85.62;94132.66;6098025;23;20186;-80
2023/10/31 01:22:34;;;;;;;2.00;0.70;;;;;;;10.25;85.67;94136.53;6097575;23;20160;-81
2023/10/31 01:24:59;;;;;;;0.83;0.50;;;;;;;10.24;86.58;94124.53;6122233;23;20187;-80
2023/10/31 01:27:25;;;;;;;3.07;0.73;;;;;;;10.18;85.84;94120.06;6097587;23;20494;-81
2023/10/31 01:29:50;;;;;;;1.13;0.60;;;;;;;10.32;85.09;94111.47;6099603;23;20180;-79
2023/10/31 01:32:15;;;;;;;1.70;0.63;;;;;;;10.32;84.83;94110.66;6125438;23;20179;-80
2023/10/31 01:34:41;;;;;;;1.93;0.60;;;;;;;10.35;84.65;94126.69;6100548;23;20166;-79
2023/10/31 01:37:06;;;;;;;1.63;0.60;;;;;;;10.15;85.24;94134.16;6101164;23;20159;-78
2023/10/31 01:39:31;;;;;;;1.50;0.50;;;;;;;10.20;85.86;94144.03;6100621;23;20179;-80
2023/10/31 01:41:56;;;;;;;2.93;0.43;;;;;;;10.24;86.13;94144.47;6100511;23;20158;-79
2023/10/31 01:44:22;;;;;;;2.43;0.73;;;;;;;10.31;85.97;94147.97;6099943;23;20178;-80
2023/10/31 01:46:47;;;;;;;1.43;0.70;;;;;;;10.31;86.27;94153.16;6124299;23;20156;-79
2023/10/31 01:49:14;;;;;;;0.60;0.60;;;;;;;10.36;86.20;94154.25;6098019;23;20179;-79
2023/10/31 01:51:40;;;;;;;2.53;0.53;;;;;;;10.31;86.21;94168.72;6122231;23;20175;-79
2023/10/31 01:54:06;;;;;;;3.00;0.87;;;;;;;10.49;85.88;94164.78;6122394;23;20164;-79
2023/10/31 01:56:32;;;;;;;1.90;0.60;;;;;;;10.49;86.01;94167.38;6121604;23;20175;-79
2023/10/31 01:58:57;;;;;;;1.20;0.70;;;;;;;10.46;86.22;94165.16;6122212;23;20191;-80
2023/10/31 02:01:22;;;;;;;0.80;0.67;;;;;;;10.39;85.99;94166.84;6122155;23;20222;-79
2023/10/31 02:03:48;;;;;;;1.80;0.63;;;;;;;10.35;85.82;94163.03;6097759;23;20501;-79
2023/10/31 02:06:13;;;;;;;1.77;0.60;;;;;;;10.30;86.04;94180.91;6097221;23;20632;-79
2023/10/31 02:08:38;;;;;;;1.13;0.60;;;;;;;10.46;85.57;94182.53;6121559;23;20684;-79
2023/10/31 02:11:05;;;;;;;1.07;0.60;;;;;;;10.47;85.49;94184.13;6097569;23;20981;-80
2023/10/31 02:13:31;;;;;;;1.67;0.83;;;;;;;10.33;85.33;94182.31;6074324;23;20155;-78
2023/10/31 02:15:56;;;;;;;2.00;0.70;;;;;;;10.49;84.74;94192.53;6097234;23;20163;-78
2023/10/31 02:18:21;;;;;;;1.33;0.70;;;;;;;10.47;85.26;94194.50;6097605;23;20996;-78
2023/10/31 02:20:47;;;;;;;2.67;0.70;;;;;;;10.26;86.09;94190.03;6121811;23;20167;-79
2023/10/31 02:23:15;;;;;;;0.50;0.50;;;;;;;10.28;85.69;94195.84;6097590;23;20213;-78
2023/10/31 02:25:40;;;;;;;1.53;0.80;;;;;;;10.22;85.63;94201.75;6096482;23;20170;-79
2023/10/31 02:28:06;;;;;;;0.93;0.50;;;;;;;10.26;85.59;94197.81;6122008;23;20147;-80
2023/10/31 02:30:34;;;;;;;0.90;0.90;;;;;;;10.32;85.55;94199.69;6121952;23;20663;-79
2023/10/31 02:33:01;;;;;;;0.97;0.70;;;;;;;10.24;85.20;94194.59;6098129;23;20199;-78
2023/10/31 02:35:26;;;;;;;1.17;0.60;;;;;;;10.21;85.12;94193.13;6119516;23;20174;-78
2023/10/31 02:37:52;;;;;;;1.47;0.60;;;;;;;10.20;84.70;94194.13;6121523;23;20228;-79
2023/10/31 02:40:18;;;;;;;0.77;0.53;;;;;;;10.06;85.44;94188.91;6144811;23;20145;-80
2023/10/31 02:42:43;;;;;;;0.73;0.50;;;;;;;10.07;84.77;94185.31;6096368;23;20196;-79
2023/10/31 02:45:09;;;;;;;2.47;0.57;;;;;;;10.00;84.94;94190.44;6119557;23;20253;-79
2023/10/31 02:47:34;;;;;;;2.07;0.87;;;;;;;10.01;83.91;94194.63;6121198;23;20195;-79
2023/10/31 02:49:59;;;;;;;0.63;0.57;;;;;;;10.11;83.90;94189.19;6146572;23;20175;-78
2023/10/31 02:52:25;;;;;;;3.30;0.70;;;;;;;10.10;83.70;94190.97;6122073;23;20191;-78
2023/10/31 02:54:50;;;;;;;1.23;0.70;;;;;;;10.08;83.38;94197.34;6145869;23;20204;-79
2023/10/31 02:57:16;;;;;;;1.07;0.50;;;;;;;10.19;83.22;94209.88;6146719;23;20171;-79
2023/10/31 02:59:41;;;;;;;0.77;0.43;;;;;;;10.09;83.59;94214.50;6122490;23;20172;-78
2023/10/31 03:02:06;;;;;;;1.60;0.70;;;;;;;10.05;83.17;94218.41;6122853;23;20148;-80
2023/10/31 03:04:32;;;;;;;0.53;0.50;;;;;;;9.98;82.98;94209.72;6129602;23;20155;-80
2023/10/31 03:06:57;;;;;;;3.67;0.67;;;;;;;10.10;83.07;94221.31;6105057;23;20487;-80
2023/10/31 03:09:22;;;;;;;2.17;0.70;;;;;;;10.04;84.42;94211.63;6104539;23;20183;-80
2023/10/31 03:11:48;;;;;;;2.30;0.40;;;;;;;10.08;83.58;94224.06;6128522;23;20176;-80
2023/10/31 03:14:13;;;;;;;0.70;0.67;;;;;;;10.16;83.58;94218.81;6103571;23;20171;-81
2023/10/31 03:16:39;;;;;;;0.60;0.50;;;;;;;10.13;83.56;94224.34;6129271;23;20159;-80
2023/10/31 03:19:04;;;;;;;1.27;0.60;;;;;;;10.14;83.71;94222.53;6130356;23;20179;-81
2023/10/31 03:21:29;;;;;;;1.50;1.00;;;;;;;10.07;83.29;94221.63;6130604;23;20159;-80
2023/10/31 03:23:58;;;;;;;1.13;0.73;;;;;;;10.13;82.99;94226.13;6105482;23;20472;-80
2023/10/31 03:26:23;;;;;;;2.20;0.50;;;;;;;9.97;83.73;94237.44;6105292;23;20160;-81
2023/10/31 03:28:49;;;;;;;1.50;0.93;;;;;;;9.95;84.09;94223.84;6130047;23;20191;-80
2023/10/31 03:31:14;;;;;;;0.83;0.53;;;;;;;10.07;84.50;94232.00;6131347;23;20635;-80
2023/10/31 03:33:41;;;;;;;2.20;0.60;;;;;;;9.90;83.06;94226.19;6130290;23;20214;-80
2023/10/31 03:36:08;;;;;;;0.90;0.60;;;;;;;10.03;82.68;94234.16;6105018;23;20169;-81
2023/10/31 03:38:33;;;;;;;1.80;0.67;;;;;;;9.78;83.68;94240.53;6104683;23;20184;-79
2023/10/31 03:40:58;;;;;;;2.97;0.80;;;;;;;9.74;83.58;94247.88;6105173;23;20158;-81
2023/10/31 03:43:24;;;;;;;2.90;0.87;;;;;;;9.78;83.16;94258.69;6129383;23;20172;-82
2023/10/31 03:45:49;;;;;;;2.33;0.60;;;;;;;9.90;83.15;94257.31;6130348;23;20171;-81
2023/10/31 03:48:18;;;;;;;1.63;0.50;;;;;;;9.89;83.37;94255.66;6104715;23;20253;-81
2023/10/31 03:50:43;;;;;;;0.80;0.70;;;;;;;9.89;83.45;94261.69;6105405;23;20498;-80
2023/10/31 03:53:08;;;;;;;1.27;0.60;;;;;;;9.70;84.03;94271.69;6104417;23;20186;-81
2023/10/31 03:55:34;;;;;;;3.70;0.70;;;;;;;9.86;83.60;94262.00;6103743;23;20152;-81
2023/10/31 03:57:59;;;;;;;1.37;1.17;;;;;;;9.80;83.86;94254.94;6104525;23;20250;-81
2023/10/31 04:00:24;;;;;;;1.97;0.60;;;;;;;9.97;82.98;94267.75;6129424;23;20170;-80
2023/10/31 04:02:50;;;;;;;1.87;0.70;;;;;;;9.98;82.84;94261.59;6104388;23;20160;-80
2023/10/31 04:05:15;;;;;;;1.80;0.60;;;;;;;9.78;83.38;94264.66;6128324;23;20203;-80
2023/10/31 04:07:41;;;;;;;1.27;0.80;;;;;;;9.64;84.00;94268.03;6104006;23;20156;-80
2023/10/31 04:10:07;;;;;;;3.37;0.73;;;;;;;9.42;84.30;94267.03;6104044;23;20226;-80
2023/10/31 04:12:33;;;;;;;1.70;0.70;;;;;;;9.54;83.31;94281.22;6128622;23;20183;-81
2023/10/31 04:14:58;;;;;;;2.67;0.70;;;;;;;9.55;82.92;94271.66;6103958;23;20171;-80
2023/10/31 04:17:23;;;;;;;2.30;0.67;;;;;;;9.34;83.01;94269.66;6103931;23;20171;-79
2023/10/31 04:19:49;;;;;;;2.23;0.50;;;;;;;9.59;82.21;94275.50;6128273;23;20172;-80
2023/10/31 04:22:14;;;;;;;2.10;0.60;;;;;;;9.68;81.85;94271.88;6103690;23;20160;-82
2023/10/31 04:24:40;;;;;;;0.83;0.70;;;;;;;9.68;82.12;94269.28;6129872;23;20486;-81
2023/10/31 04:27:05;;;;;;;1.93;0.70;;;;;;;9.49;81.57;94265.38;6103857;23;20164;-79
2023/10/31 04:29:30;;;;;;;1.70;0.60;;;;;;;9.47;82.63;94266.53;6129168;23;20206;-82
2023/10/31 04:31:56;;;;;;;0.77;0.67;;;;;;;9.44;82.85;94282.41;6127925;23;20226;-81
2023/10/31 04:34:21;;;;;;;1.20;0.80;;;;;;;9.33;83.41;94274.03;6102962;23;20175;-80
2023/10/31 04:36:46;;;;;;;2.53;0.80;;;;;;;9.34;83.21;94280.84;6103867;23;20163;-82
2023/10/31 04:39:11;;;;;;;2.47;0.50;;;;;;;9.21;84.06;94282.38;6128107;23;20694;-80
2023/10/31 04:41:37;;;;;;;3.80;0.77;;;;;;;9.07;83.74;94286.47;6128875;23;20159;-82
2023/10/31 04:44:02;;;;;;;2.67;0.77;;;;;;;9.05;84.18;94283.25;6103480;23;20215;-82
2023/10/31 04:46:28;;;;;;;0.93;0.60;;;;;;;9.19;82.97;94285.16;6102777;23;20160;-81
2023/10/31 04:48:53;;;;;;;1.23;0.50;;;;;;;9.06;83.54;94275.31;6128128;23;20175;-80
2023/10/31 04:51:19;;;;;;;1.73;0.60;;;;;;;9.15;82.92;94277.88;6102633;23;20198;-79
2023/10/31 04:53:44;;;;;;;0.70;0.50;;;;;;;9.31;82.32;94288.16;6102983;23;20156;-80
2023/10/31 04:56:14;;;;;;;2.33;1.20;;;;;;;9.16;82.45;94288.06;6101852;23;20698;-79
2023/10/31 04:58:39;;;;;;;1.03;0.60;;;;;;;9.23;81.90;94281.22;6126946;23;20176;-81
2023/10/31 05:01:08;;;;;;;1.90;0.70;;;;;;;9.26;82.13;94291.22;6102630;23;20171;-81
2023/10/31 05:03:33;;;;;;;0.87;0.60;;;;;;;9.19;82.14;94292.06;6103331;23;20246;-80
2023/10/31 05:05:59;;;;;;;1.20;0.60;;;;;;;9.22;82.42;94282.19;6103232;23;20160;-81
2023/10/31 05:08:24;;;;;;;0.87;0.60;;;;;;;9.19;82.67;94287.72;6127616;23;20191;-81
2023/10/31 05:10:50;;;;;;;3.00;0.70;;;;;;;9.12;82.14;94288.56;6102685;23;20167;-81
2023/10/31 05:13:15;;;;;;;1.57;0.80;;;;;;;9.08;82.21;94280.31;6128193;23;20497;-81
2023/10/31 05:15:40;;;;;;;1.63;0.70;;;;;;;9.25;81.94;94288.81;6127787;23;20153;-81
2023/10/31 05:18:06;;;;;;;2.70;0.80;;;;;;;9.04;81.96;94286.81;6128732;23;20604;-81
2023/10/31 05:20:31;;;;;;;1.00;0.70;;;;;;;9.14;82.17;94282.25;6127197;23;20495;-81
2023/10/31 05:22:56;;;;;;;0.93;0.73;;;;;;;9.13;81.83;94291.00;6127347;23;20258;-81
2023/10/31 05:25:21;;;;;;;1.10;0.77;;;;;;;9.21;81.35;94288.38;6101491;23;20156;-81
2023/10/31 05:27:48;;;;;;;1.47;0.60;;;;;;;8.98;81.91;94290.88;6101784;23;20222;-81
2023/10/31 05:30:14;;;;;;;1.20;0.60;;;;;;;9.05;81.76;94299.59;6102627;23;20190;-82
2023/10/31 05:32:39;;;;;;;0.60;0.60;;;;;;;8.93;82.30;94294.97;6101709;23;20184;-81
2023/10/31 05:35:05;;;;;;;1.33;0.60;;;;;;;8.86;83.23;94300.00;6101372;23;20160;-81
2023/10/31 05:37:30;;;;;;;0.43;0.43;;;;;;;8.93;82.48;94302.75;6102146;23;20164;-80
2023/10/31 05:39:55;;;;;;;1.37;0.60;;;;;;;8.83;83.39;94309.88;6101613;23;20184;-81
2023/10/31 05:42:21;;;;;;;1.03;0.43;;;;;;;8.96;82.68;94298.03;6101614;23;20159;-81
2023/10/31 05:44:46;;;;;;;0.50;0.40;;;;;;;9.04;81.10;94307.53;6100546;23;20159;-80
2023/10/31 05:47:11;;;;;;;2.60;0.40;;;;;;;8.83;80.83;94307.28;6126005;23;20156;-80
2023/10/31 05:49:37;;;;;;;0.40;0.40;;;;;;;8.89;80.71;94309.22;6101083;23;20508;-81
2023/10/31 05:52:02;;;;;;;1.70;0.40;;;;;;;9.03;80.29;94305.94;6125844;23;20187;-80
2023/10/31 05:54:27;;;;;;;1.23;0.40;;;;;;;9.12;80.08;94315.28;6124590;23;20160;-80
2023/10/31 05:56:53;;;;;;;2.00;0.40;;;;;;;9.17;79.36;94319.94;6101230;23;20168;-79
2023/10/31 05:59:18;;;;;;;3.23;0.70;;;;;;;9.06;79.46;94332.28;6100944;23;20230;-80
2023/10/31 06:01:43;;;;;;;2.30;0.60;;;;;;;9.11;79.21;94333.59;6101679;23;20156;-81
2023/10/31 06:04:09;;;;;;;1.40;0.83;;;;;;;9.21;79.95;94332.41;6101024;23;20163;-80
2023/10/31 06:06:37;;;;;;;2.70;0.90;;;;;;;9.09;79.70;94325.97;6100634;23;20262;-80
2023/10/31 06:09:03;;;;;;;1.30;0.40;;;;;;;9.13;79.23;94327.25;6101085;23;20175;-79
2023/10/31 06:11:29;;;;;;;2.93;0.90;;;;;;;9.25;79.43;94331.06;6101195;23;20195;-80
2023/10/31 06:13:54;;;;;;;1.47;0.70;;;;;;;9.36;79.16;94329.88;6100882;23;20501;-77
2023/10/31 06:16:21;;;;;;;1.43;1.33;;;;;;;9.46;78.38;94333.09;6100737;23;20175;-79
2023/10/31 06:18:46;;;;;;;1.70;0.80;;;;;;;9.32;78.83;94347.56;6125783;23;20172;-81
2023/10/31 06:21:11;;;;;;;1.37;0.60;;;;;;;9.19;78.89;94347.31;6100645;23;20172;-81
2023/10/31 06:23:37;;;;;;;1.23;0.80;;;;;;;9.32;78.08;94346.75;6125671;23;20158;-81
2023/10/31 06:26:03;;;;;;;1.93;1.60;;;;;;;9.39;78.35;94344.31;6125630;23;20163;-81
2023/10/31 06:28:28;;;;;;;2.73;2.20;;;;;;;9.39;78.84;94357.25;6125395;23;20175;-81
2023/10/31 06:30:53;;;;;;;1.83;0.90;;;;;;;9.05;79.14;94351.41;6125583;23;20614;-81
2023/10/31 06:33:19;;;;;;;9.00;4.17;;;;;;;9.29;78.90;94360.88;6126057;23;20156;-80
2023/10/31 06:35:44;;;;;;;3.07;1.30;;;;;;;9.31;78.97;94356.31;6101102;23;20168;-80
2023/10/31 06:38:09;;;;;;;2.73;0.70;;;;;;;9.16;79.83;94352.81;6101611;23;20183;-79
2023/10/31 06:40:34;;;;;;;2.70;1.00;;;;;;;9.21;79.77;94353.13;6100955;23;20172;-79
2023/10/31 06:43:01;;;;;;;3.40;1.27;;;;;;;9.35;79.21;94360.16;6101771;23;20215;-78
2023/10/31 06:45:26;;;;;;;1.53;1.40;;;;;;;9.47;78.96;94368.41;6099541;23;20631;-79
2023/10/31 06:47:52;;;;;;;2.17;1.07;;;;;;;9.45;79.05;94370.31;6101322;23;20160;-79
2023/10/31 06:50:17;;;;;;;2.93;1.00;;;;;;;9.32;78.83;94389.00;6124287;23;20191;-80
2023/10/31 06:52:42;;;;;;;1.87;0.70;;;;;;;9.44;79.15;94388.63;6125132;23;20180;-82
2023/10/31 06:55:09;;;;;;;2.43;0.80;;;;;;;9.55;78.47;94390.88;6100250;23;20643;-82
2023/10/31 06:57:34;;;;;;;1.53;0.80;;;;;;;9.55;78.70;94388.28;6101013;23;20183;-79
2023/10/31 07:00:00;;;;;;;0.67;0.50;;;;;;;9.66;78.53;94395.66;6124644;23;20189;-79
2023/10/31 07:02:25;;;;;;;3.03;0.97;;;;;;;9.60;79.12;94401.53;6124344;23;20183;-80
2023/10/31 07:04:51;;;;;;;1.23;0.90;;;;;;;9.71;78.70;94398.53;6124671;23;20167;-81
2023/10/31 07:07:16;;;;;;;1.87;0.70;;;;;;;9.67;79.22;94404.25;6100861;23;20194;-79
2023/10/31 07:09:41;;;;;;;1.57;0.70;;;;;;;9.38;80.90;94402.28;6099735;23;20186;-79
2023/10/31 07:12:07;;;;;;;0.77;0.70;;;;;;;9.55;80.23;94414.19;6099232;23;20184;-79
2023/10/31 07:14:32;;;;;;;2.63;0.80;;;;;;;9.45;80.62;94409.19;6125371;23;20156;-80
2023/10/31 07:16:57;;;;;;;1.83;0.80;;;;;;;9.84;79.56;94423.94;6123330;23;20210;-77
2023/10/31 07:19:23;;;;;;;2.77;1.00;;;;;;;9.80;79.78;94423.44;6099089;23;20636;-80
2023/10/31 07:21:48;;;;;;;0.67;0.53;;;;;;;9.76;79.49;94422.19;6122757;23;20152;-80
2023/10/31 07:24:13;;;;;;;1.07;0.67;;;;;;;9.96;79.14;94421.75;6122648;23;20152;-81
2023/10/31 07:26:39;;;;;;;4.40;0.80;;;;;;;9.76;79.20;94426.56;6123099;23;20160;-80
2023/10/31 07:29:05;;;;;;;3.30;0.90;;;;;;;9.88;79.16;94430.38;6124361;23;20210;-79
2023/10/31 07:31:30;;;;;;;2.63;0.87;;;;;;;10.06;78.79;94432.72;6100727;23;20180;-79
2023/10/31 07:33:56;;;;;;;3.07;0.90;;;;;;;10.15;77.97;94431.69;6127309;23;20186;-79
2023/10/31 07:36:21;;;;;;;2.53;1.00;;;;;;;10.09;78.39;94429.78;6123717;23;20160;-79
2023/10/31 07:38:47;;;;;;;1.30;1.00;;;;;;;10.35;77.98;94437.28;6099537;23;20202;-79
2023/10/31 07:41:13;;;;;;;2.50;1.00;;;;;;;10.31;77.56;94425.63;6123008;23;20267;-80
2023/10/31 07:43:38;;;;;;;4.13;1.20;;;;;;;10.15;77.50;94426.50;6098698;23;20160;-79
2023/10/31 07:46:03;;;;;;;2.60;1.07;;;;;;;10.16;77.71;94439.31;6122922;23;20160;-81
2023/10/31 07:48:29;;;;;;;4.23;2.40;;;;;;;10.08;77.82;94436.78;6123999;23;20564;-79
2023/10/31 07:50:54;;;;;;;5.00;1.30;;;;;;;10.17;76.61;94429.75;6099438;23;20171;-78
2023/10/31 07:53:19;;;;;;;3.13;0.90;;;;;;;10.00;76.98;94438.59;6098950;23;20192;-82
2023/10/31 07:55:45;;;;;;;4.27;1.60;;;;;;;10.22;76.58;94448.22;6098266;23;20175;-80
2023/10/31 07:58:10;;;;;;;2.13;1.77;;;;;;;10.17;76.51;94443.53;6098144;23;20163;-81
2023/10/31 08:00:36;;;;;;;2.23;0.80;;;;;;;10.34;75.85;94444.25;6098793;23;20164;-81
2023/10/31 08:03:01;;;;;;;1.60;1.00;;;;;;;10.27;75.25;94456.31;6122938;23;20168;-79
2023/10/31 08:05:27;;;;;;;1.67;1.10;;;;;;;10.46;75.23;94465.41;6098541;23;20166;-80
2023/10/31 08:07:52;;;;;;;4.50;0.93;;;;;;;10.35;75.10;94473.59;6099763;23;20164;-79
2023/10/31 08:10:17;;;;;;;2.70;0.73;;;;;;;10.32;74.37;94468.75;6099353;23;20164;-80
2023/10/31 08:12:43;;;;;;;2.87;0.87;;;;;;;10.37;75.00;94485.44;6099493;23;20207;-79
2023/10/31 08:15:09;;;;;;;3.63;1.10;;;;;;;10.60;74.47;94492.41;6099118;23;20183;-81
2023/10/31 08:17:35;;;;;;;1.50;0.80;;;;;;;10.68;74.11;94481.97;6099348;23;20164;-80
2023/10/31 08:20:00;;;;;;;4.83;1.10;;;;;;;10.65;73.96;94482.31;6102045;23;20184;-80
2023/10/31 08:22:25;;;;;;;3.43;1.10;;;;;;;10.74;73.65;94491.66;6104423;23;20536;-79
2023/10/31 08:24:51;;;;;;;4.60;1.77;;;;;;;10.44;73.91;94488.97;6102782;23;20167;-79
2023/10/31 08:27:16;;;;;;;4.70;1.03;;;;;;;10.73;73.46;94484.84;6100338;23;20163;-77
2023/10/31 08:29:41;;;;;;;7.27;1.20;;;;;;;10.60;73.95;94489.81;6129192;23;20200;-79
2023/10/31 08:32:07;;;;;;;4.87;1.23;;;;;;;10.65;74.06;94483.13;6098674;23;20182;-79
2023/10/31 08:34:32;;;;;;;4.67;1.13;;;;;;;10.79;73.86;94486.75;6098050;23;20159;-79
2023/10/31 08:36:59;;;;;;;4.70;0.97;;;;;;;10.88;73.19;94485.72;6098682;23;20162;-78
2023/10/31 08:39:24;;;;;;;2.70;1.30;;;;;;;11.27;72.54;94489.91;6098990;23;20187;-80
2023/10/31 08:41:57;;;;;;;3.43;1.00;;;;;;;11.29;72.38;94504.31;6099419;23;20152;-79
2023/10/31 08:44:23;;;;;;;2.93;1.17;;;;;;;11.31;72.25;94507.56;6098589;23;20159;-81
2023/10/31 08:46:48;;;;;;;2.53;1.40;;;;;;;11.42;71.71;94511.53;6099630;23;20156;-80
2023/10/31 08:49:14;;;;;;;3.33;1.27;;;;;;;11.45;71.65;94510.34;6097850;23;20647;-80
2023/10/31 08:51:39;;;;;;;2.27;0.80;;;;;;;11.74;70.98;94512.97;6095042;23;20191;-79
2023/10/31 08:54:05;;;;;;;4.63;1.17;;;;;;;11.36;71.44;94507.03;6120045;23;20171;-80
2023/10/31 08:56:30;;;;;;;2.87;0.77;;;;;;;11.32;71.41;94513.56;6094517;23;20278;-79
2023/10/31 08:58:56;;;;;;;2.30;0.90;;;;;;;11.56;70.92;94520.31;6095251;23;20242;-80
2023/10/31 09:01:22;;;;;;;6.07;1.23;;;;;;;11.23;71.63;94509.44;6120509;23;20503;-81
2023/10/31 09:03:47;;;;;;;3.43;0.80;;;;;;;10.92;72.03;94501.75;6096728;23;20678;-81
2023/10/31 09:06:13;;;;;;;3.47;0.90;;;;;;;11.05;72.26;94500.19;6124901;23;20167;-79
2023/10/31 09:08:38;;;;;;;1.93;0.90;;;;;;;11.47;71.53;94500.56;6123197;23;20182;-79
2023/10/31 09:11:04;;;;;;;4.80;0.93;;;;;;;11.85;70.58;94509.97;6094594;23;20163;-78
2023/10/31 09:13:31;;;;;;;18.17;8.27;;;;;;;11.92;70.30;94517.81;6095265;23;20746;-79
2023/10/31 09:15:57;;;;;;;2.10;1.40;;;;;;;11.76;70.56;94513.59;6093767;23;20164;-79
2023/10/31 09:18:24;;;;;;;3.07;1.20;;;;;;;12.05;70.55;94518.00;6094953;23;20211;-78
2023/10/31 09:20:49;;;;;;;5.23;1.30;;;;;;;11.74;70.48;94522.56;6095015;23;20554;-78
2023/10/31 09:23:14;;;;;;;3.13;1.20;;;;;;;11.91;70.62;94518.81;6095413;23;20219;-79
2023/10/31 09:25:40;;;;;;;5.37;1.27;;;;;;;12.09;69.96;94526.25;6094745;23;20159;-80
2023/10/31 09:28:05;;;;;;;5.07;1.20;;;;;;;11.86;70.29;94521.16;6119065;23;20160;-78
2023/10/31 09:30:31;;;;;;;8.50;1.83;;;;;;;11.96;70.16;94521.69;6095648;23;20164;-79
2023/10/31 09:32:56;;;;;;;5.13;1.20;;;;;;;11.99;70.45;94507.50;6119076;23;20184;-79
2023/10/31 09:35:22;;;;;;;6.33;1.90;;;;;;;12.11;70.19;94519.09;6116110;23;20164;-80
2023/10/31 09:37:48;;;;;;;5.60;1.20;;;;;;;11.99;70.07;94513.50;6095923;23;20167;-79
2023/10/31 09:40:14;;;;;;;3.60;1.20;;;;;;;12.06;69.85;94516.22;6121569;23;20195;-81
2023/10/31 09:42:39;;;;;;;6.33;2.57;;;;;;;12.31;69.47;94520.13;6124882;23;20152;-79
2023/10/31 09:45:05;;;;;;;4.33;1.30;;;;;;;11.82;71.36;94525.91;6124483;23;20238;-82
2023/10/31 09:47:32;;;;;;;3.93;1.33;;;;;;;11.74;71.91;94531.16;6098226;23;20160;-79
2023/10/31 09:49:59;;;;;;;8.53;1.40;;;;;;;11.72;71.82;94530.53;6124003;23;20176;-79
2023/10/31 09:52:25;;;;;;;7.90;1.33;;;;;;;11.70;72.84;94531.72;6122966;23;20180;-77
2023/10/31 09:54:53;;;;;;;6.93;1.27;;;;;;;11.98;73.44;94534.53;6121591;23;20155;-81
2023/10/31 09:57:18;;;;;;;3.80;2.07;;;;;;;12.38;72.30;94536.63;6097747;23;20179;-79
2023/10/31 09:59:44;;;;;;;1.97;1.00;;;;;;;11.97;72.87;94528.50;6097302;23;20179;-79
2023/10/31 10:02:09;;;;;;;2.83;1.10;;;;;;;11.98;73.07;94535.31;6123188;23;20176;-78
2023/10/31 10:04:36;;;;;;;3.87;1.37;;;;;;;11.92;73.77;94533.44;6121740;23;20171;-80
2023/10/31 10:07:02;;;;;;;3.57;1.67;;;;;;;12.28;73.57;94530.06;6098136;23;20163;-79
2023/10/31 10:09:28;;;;;;;1.00;0.73;;;;;;;12.42;72.82;94526.63;6098299;23;20176;-81
2023/10/31 10:11:54;;;;;;;3.67;1.13;;;;;;;12.36;72.81;94529.97;6097804;23;20187;-80
2023/10/31 10:14:20;;;;;;;3.57;0.97;;;;;;;12.58;71.89;94525.63;6093707;23;20188;-83
2023/10/31 10:16:45;;;;;;;4.23;1.20;;;;;;;12.65;71.44;94522.09;6070690;23;20174;-86
2023/10/31 10:19:19;;;;;;;2.93;1.00;;;;;;;12.78;70.19;94524.00;6095036;23;20168;-83
2023/10/31 10:21:58;;;;;;;3.70;0.93;;;;;;;13.05;69.62;94525.06;6097885;23;20150;-85
2023/10/31 10:24:24;;;;;;;4.37;1.17;;;;;;;12.71;69.85;94526.53;6098324;23;20156;-84
2023/10/31 10:26:50;;;;;;;2.57;1.13;;;;;;;13.11;68.63;94529.53;6097914;23;20179;-83
2023/10/31 10:29:16;;;;;;;4.27;1.10;;;;;;;12.83;69.22;94520.84;6123424;23;20227;-79
2023/10/31 10:31:42;;;;;;;2.10;0.73;;;;;;;13.12;68.17;94517.31;6125008;23;20662;-78
2023/10/31 10:34:12;;;;;;;3.63;0.70;;;;;;;13.11;67.31;94524.31;6098227;23;20187;-77
2023/10/31 10:36:37;;;;;;;4.83;0.60;;;;;;;13.15;67.54;94533.34;6125794;23;20137;-81
2023/10/31 10:39:03;;;;;;;1.73;0.80;;;;;;;12.94;68.66;94528.16;6101840;23;20523;-81
2023/10/31 10:41:29;;;;;;;2.83;0.93;;;;;;;12.99;68.88;94523.22;6101738;23;20612;-82
2023/10/31 10:44:07;;;;;;;3.43;0.50;;;;;;;12.94;68.53;94533.38;6101018;23;20167;-81
2023/10/31 10:46:35;;;;;;;4.03;0.73;;;;;;;12.83;67.93;94526.88;6124859;23;20140;-81
2023/10/31 10:49:04;;;;;;;4.73;1.10;;;;;;;12.96;68.32;94534.81;6124881;23;20247;-80
2023/10/31 10:51:33;;;;;;;2.63;0.80;;;;;;;12.60;69.05;94528.84;6099645;23;20648;-81
2023/10/31 10:54:09;;;;;;;0.87;0.63;;;;;;;13.24;67.63;94528.84;6124450;23;20164;-81
2023/10/31 10:56:38;;;;;;;2.47;1.13;;;;;;;12.95;68.54;94533.19;6100245;23;20171;-81
2023/10/31 10:59:15;;;;;;;2.93;0.80;;;;;;;13.10;67.59;94525.31;6124776;23;20175;-79
2023/10/31 11:01:41;;;;;;;1.53;0.50;;;;;;;13.39;66.06;94536.59;6100512;23;20203;-80
2023/10/31 11:04:06;;;;;;;2.07;1.00;;;;;;;13.21;67.91;94535.25;6100440;23;20160;-82
2023/10/31 11:06:34;;;;;;;2.93;1.00;;;;;;;13.81;65.80;94544.31;6099615;23;20159;-79
2023/10/31 11:09:00;;;;;;;2.63;0.80;;;;;;;13.83;66.15;94541.50;6100183;23;20183;-78
2023/10/31 11:11:25;;;;;;;3.50;1.10;;;;;;;13.84;65.21;94537.91;6100354;23;20274;-81
2023/10/31 11:13:51;;;;;;;0.73;0.50;;;;;;;13.91;65.07;94543.16;6101001;23;20841;-80
2023/10/31 11:16:22;;;;;;;1.33;0.70;;;;;;;14.04;64.63;94538.81;6101604;23;20167;-79
2023/10/31 11:18:48;;;;;;;1.57;0.50;;;;;;;13.89;64.66;94546.78;6100092;23;20176;-78
2023/10/31 11:21:13;;;;;;;2.43;0.73;;;;;;;14.00;64.01;94545.41;6099887;23;20658;-79
2023/10/31 11:23:39;;;;;;;1.43;0.53;;;;;;;13.98;64.51;94546.63;6124096;23;20156;-78
2023/10/31 11:26:08;;;;;;;3.10;0.67;;;;;;;13.69;64.68;94543.22;6099290;23;20160;-79
2023/10/31 11:28:33;;;;;;;0.83;0.50;;;;;;;13.48;64.95;94540.69;6124144;23;20187;-80